sensor_id;sensor_type;location;lat;lon;timestamp;temperature;humidity
63435;DHT22;68814;50.872;5.306;2023-06-22T00:01:49;21.00;71.80
63435;DHT22;68814;50.872;5.306;2023-06-22T00:04:15;21.00;72.10
63435;DHT22;68814;50.872;5.306;2023-06-22T00:06:41;21.00;71.80
63435;DHT22;68814;50.872;5.306;2023-06-22T00:09:06;21.00;72.50
63435;DHT22;68814;50.872;5.306;2023-06-22T00:11:36;21.00;72.10
63435;DHT22;68814;50.872;5.306;2023-06-22T00:14:02;21.00;71.70
63435;DHT22;68814;50.872;5.306;2023-06-22T00:16:47;20.90;72.30
63435;DHT22;68814;50.872;5.306;2023-06-22T00:19:17;20.90;72.30
63435;DHT22;68814;50.872;5.306;2023-06-22T00:21:44;20.90;71.20
63435;DHT22;68814;50.872;5.306;2023-06-22T00:24:31;20.90;71.80
63435;DHT22;68814;50.872;5.306;2023-06-22T00:26:56;20.90;71.80
63435;DHT22;68814;50.872;5.306;2023-06-22T00:29:22;20.90;71.80
63435;DHT22;68814;50.872;5.306;2023-06-22T00:31:47;20.90;71.30
63435;DHT22;68814;50.872;5.306;2023-06-22T00:34:13;21.00;71.60
63435;DHT22;68814;50.872;5.306;2023-06-22T00:36:38;21.00;71.50
63435;DHT22;68814;50.872;5.306;2023-06-22T00:39:06;21.00;72.00
63435;DHT22;68814;50.872;5.306;2023-06-22T00:41:52;21.00;72.10
63435;DHT22;68814;50.872;5.306;2023-06-22T00:44:18;20.90;71.50
63435;DHT22;68814;50.872;5.306;2023-06-22T00:46:44;21.00;72.00
63435;DHT22;68814;50.872;5.306;2023-06-22T00:49:09;21.00;73.20
63435;DHT22;68814;50.872;5.306;2023-06-22T00:51:35;21.00;72.50
63435;DHT22;68814;50.872;5.306;2023-06-22T00:54:04;21.00;71.80
63435;DHT22;68814;50.872;5.306;2023-06-22T00:56:30;21.00;71.80
63435;DHT22;68814;50.872;5.306;2023-06-22T00:58:58;21.00;72.30
63435;DHT22;68814;50.872;5.306;2023-06-22T01:01:24;21.00;71.90
63435;DHT22;68814;50.872;5.306;2023-06-22T01:03:51;21.00;71.50
63435;DHT22;68814;50.872;5.306;2023-06-22T01:09:28;21.00;72.10
63435;DHT22;68814;50.872;5.306;2023-06-22T01:12:07;20.90;71.80
63435;DHT22;68814;50.872;5.306;2023-06-22T01:14:47;20.90;70.90
63435;DHT22;68814;50.872;5.306;2023-06-22T01:17:15;20.90;70.60
63435;DHT22;68814;50.872;5.306;2023-06-22T01:19:47;20.80;71.20
63435;DHT22;68814;50.872;5.306;2023-06-22T01:22:20;20.80;71.20
63435;DHT22;68814;50.872;5.306;2023-06-22T01:25:12;20.80;70.60
63435;DHT22;68814;50.872;5.306;2023-06-22T01:28:10;20.80;70.90
63435;DHT22;68814;50.872;5.306;2023-06-22T01:30:41;20.80;71.20
63435;DHT22;68814;50.872;5.306;2023-06-22T01:33:10;20.80;71.40
63435;DHT22;68814;50.872;5.306;2023-06-22T01:35:37;20.80;71.80
63435;DHT22;68814;50.872;5.306;2023-06-22T01:38:03;20.80;71.60
63435;DHT22;68814;50.872;5.306;2023-06-22T01:40:30;20.80;71.60
63435;DHT22;68814;50.872;5.306;2023-06-22T01:42:57;20.70;71.70
63435;DHT22;68814;50.872;5.306;2023-06-22T01:45:24;20.70;71.00
63435;DHT22;68814;50.872;5.306;2023-06-22T01:47:50;20.70;71.70
63435;DHT22;68814;50.872;5.306;2023-06-22T01:50:16;20.70;71.80
63435;DHT22;68814;50.872;5.306;2023-06-22T01:52:42;20.70;71.60
63435;DHT22;68814;50.872;5.306;2023-06-22T01:55:07;20.70;72.20
63435;DHT22;68814;50.872;5.306;2023-06-22T01:57:35;20.60;71.80
63435;DHT22;68814;50.872;5.306;2023-06-22T02:00:03;20.70;72.00
63435;DHT22;68814;50.872;5.306;2023-06-22T02:02:44;20.60;72.20
63435;DHT22;68814;50.872;5.306;2023-06-22T02:05:16;20.60;72.60
63435;DHT22;68814;50.872;5.306;2023-06-22T02:07:49;20.60;72.60
63435;DHT22;68814;50.872;5.306;2023-06-22T02:10:16;20.60;72.90
63435;DHT22;68814;50.872;5.306;2023-06-22T02:12:45;20.60;73.70
63435;DHT22;68814;50.872;5.306;2023-06-22T02:15:11;20.50;74.60
63435;DHT22;68814;50.872;5.306;2023-06-22T02:17:38;20.50;75.00
63435;DHT22;68814;50.872;5.306;2023-06-22T02:20:04;20.40;75.40
63435;DHT22;68814;50.872;5.306;2023-06-22T02:22:34;20.40;75.80
63435;DHT22;68814;50.872;5.306;2023-06-22T02:24:59;20.40;75.90
63435;DHT22;68814;50.872;5.306;2023-06-22T02:27:25;20.30;76.50
63435;DHT22;68814;50.872;5.306;2023-06-22T02:29:51;20.30;76.20
63435;DHT22;68814;50.872;5.306;2023-06-22T02:32:16;20.30;76.70
63435;DHT22;68814;50.872;5.306;2023-06-22T02:34:43;20.30;77.10
63435;DHT22;68814;50.872;5.306;2023-06-22T02:37:13;20.30;77.30
63435;DHT22;68814;50.872;5.306;2023-06-22T02:39:40;20.30;77.30
63435;DHT22;68814;50.872;5.306;2023-06-22T02:42:06;20.30;77.10
63435;DHT22;68814;50.872;5.306;2023-06-22T02:44:31;20.20;77.40
63435;DHT22;68814;50.872;5.306;2023-06-22T02:46:57;20.20;77.60
63435;DHT22;68814;50.872;5.306;2023-06-22T02:49:23;20.20;77.80
63435;DHT22;68814;50.872;5.306;2023-06-22T02:51:49;20.20;78.60
63435;DHT22;68814;50.872;5.306;2023-06-22T02:54:15;20.20;78.30
63435;DHT22;68814;50.872;5.306;2023-06-22T02:56:42;20.20;78.70
63435;DHT22;68814;50.872;5.306;2023-06-22T02:59:09;20.10;78.60
63435;DHT22;68814;50.872;5.306;2023-06-22T03:01:36;20.10;78.50
63435;DHT22;68814;50.872;5.306;2023-06-22T03:04:08;20.10;79.10
63435;DHT22;68814;50.872;5.306;2023-06-22T03:06:35;20.10;78.90
63435;DHT22;68814;50.872;5.306;2023-06-22T03:09:04;20.10;79.40
63435;DHT22;68814;50.872;5.306;2023-06-22T03:11:31;20.00;78.60
63435;DHT22;68814;50.872;5.306;2023-06-22T03:13:57;20.00;79.30
63435;DHT22;68814;50.872;5.306;2023-06-22T03:16:23;20.00;79.60
63435;DHT22;68814;50.872;5.306;2023-06-22T03:18:49;20.00;79.80
63435;DHT22;68814;50.872;5.306;2023-06-22T03:21:14;19.90;80.00
63435;DHT22;68814;50.872;5.306;2023-06-22T03:23:41;20.00;79.70
63435;DHT22;68814;50.872;5.306;2023-06-22T03:26:09;19.90;79.80
63435;DHT22;68814;50.872;5.306;2023-06-22T03:28:34;20.00;79.70
63435;DHT22;68814;50.872;5.306;2023-06-22T03:31:00;20.00;80.00
63435;DHT22;68814;50.872;5.306;2023-06-22T03:33:25;20.00;80.40
63435;DHT22;68814;50.872;5.306;2023-06-22T03:35:51;20.00;80.50
63435;DHT22;68814;50.872;5.306;2023-06-22T03:38:17;19.90;80.60
63435;DHT22;68814;50.872;5.306;2023-06-22T03:40:43;19.90;81.10
63435;DHT22;68814;50.872;5.306;2023-06-22T03:43:08;19.90;81.20
63435;DHT22;68814;50.872;5.306;2023-06-22T03:45:34;19.90;81.90
63435;DHT22;68814;50.872;5.306;2023-06-22T03:48:01;19.90;81.70
63435;DHT22;68814;50.872;5.306;2023-06-22T03:50:27;19.90;82.30
63435;DHT22;68814;50.872;5.306;2023-06-22T03:52:52;19.90;82.50
63435;DHT22;68814;50.872;5.306;2023-06-22T03:55:20;19.90;82.70
63435;DHT22;68814;50.872;5.306;2023-06-22T03:57:45;19.80;83.30
63435;DHT22;68814;50.872;5.306;2023-06-22T04:00:12;19.80;83.30
63435;DHT22;68814;50.872;5.306;2023-06-22T04:02:38;19.80;83.50
63435;DHT22;68814;50.872;5.306;2023-06-22T04:05:04;19.80;84.00
63435;DHT22;68814;50.872;5.306;2023-06-22T04:07:29;19.90;83.30
63435;DHT22;68814;50.872;5.306;2023-06-22T04:09:55;19.90;84.00
63435;DHT22;68814;50.872;5.306;2023-06-22T04:12:20;19.90;84.30
63435;DHT22;68814;50.872;5.306;2023-06-22T04:14:46;20.00;85.10
63435;DHT22;68814;50.872;5.306;2023-06-22T04:17:12;20.00;85.30
63435;DHT22;68814;50.872;5.306;2023-06-22T04:19:39;20.10;85.40
63435;DHT22;68814;50.872;5.306;2023-06-22T04:22:05;20.10;85.90
63435;DHT22;68814;50.872;5.306;2023-06-22T04:24:33;20.10;85.60
63435;DHT22;68814;50.872;5.306;2023-06-22T04:26:58;20.20;85.50
63435;DHT22;68814;50.872;5.306;2023-06-22T04:29:31;20.20;86.00
63435;DHT22;68814;50.872;5.306;2023-06-22T04:31:57;20.20;86.70
63435;DHT22;68814;50.872;5.306;2023-06-22T04:34:29;20.20;86.30
63435;DHT22;68814;50.872;5.306;2023-06-22T04:36:55;20.20;85.90
63435;DHT22;68814;50.872;5.306;2023-06-22T04:39:21;20.30;86.00
63435;DHT22;68814;50.872;5.306;2023-06-22T04:41:47;20.30;85.90
63435;DHT22;68814;50.872;5.306;2023-06-22T04:44:14;20.30;85.30
63435;DHT22;68814;50.872;5.306;2023-06-22T04:46:57;20.30;85.90
63435;DHT22;68814;50.872;5.306;2023-06-22T04:49:28;20.40;86.00
63435;DHT22;68814;50.872;5.306;2023-06-22T04:52:05;20.40;85.90
63435;DHT22;68814;50.872;5.306;2023-06-22T04:54:32;20.40;85.60
63435;DHT22;68814;50.872;5.306;2023-06-22T04:57:06;20.50;86.10
63435;DHT22;68814;50.872;5.306;2023-06-22T04:59:36;20.40;86.00
63435;DHT22;68814;50.872;5.306;2023-06-22T05:02:05;20.50;85.80
63435;DHT22;68814;50.872;5.306;2023-06-22T05:04:31;20.50;85.60
63435;DHT22;68814;50.872;5.306;2023-06-22T05:06:58;20.50;85.80
63435;DHT22;68814;50.872;5.306;2023-06-22T05:09:24;20.50;88.00
63435;DHT22;68814;50.872;5.306;2023-06-22T05:11:50;20.50;89.30
63435;DHT22;68814;50.872;5.306;2023-06-22T05:14:16;20.40;89.90
63435;DHT22;68814;50.872;5.306;2023-06-22T05:16:43;20.40;90.40
63435;DHT22;68814;50.872;5.306;2023-06-22T05:19:09;20.40;90.60
63435;DHT22;68814;50.872;5.306;2023-06-22T05:21:35;20.30;91.00
63435;DHT22;68814;50.872;5.306;2023-06-22T05:24:01;20.30;91.10
63435;DHT22;68814;50.872;5.306;2023-06-22T05:26:29;20.30;90.90
63435;DHT22;68814;50.872;5.306;2023-06-22T05:28:55;20.30;91.10
63435;DHT22;68814;50.872;5.306;2023-06-22T05:31:21;20.30;91.30
63435;DHT22;68814;50.872;5.306;2023-06-22T05:33:48;20.30;91.20
63435;DHT22;68814;50.872;5.306;2023-06-22T05:36:14;20.30;91.50
63435;DHT22;68814;50.872;5.306;2023-06-22T05:38:41;20.30;91.60
63435;DHT22;68814;50.872;5.306;2023-06-22T05:41:07;20.30;91.80
63435;DHT22;68814;50.872;5.306;2023-06-22T05:43:33;20.30;91.70
63435;DHT22;68814;50.872;5.306;2023-06-22T05:46:00;20.30;92.10
63435;DHT22;68814;50.872;5.306;2023-06-22T05:48:26;20.20;92.30
63435;DHT22;68814;50.872;5.306;2023-06-22T05:50:52;20.20;92.50
63435;DHT22;68814;50.872;5.306;2023-06-22T05:53:18;20.30;92.40
63435;DHT22;68814;50.872;5.306;2023-06-22T05:55:44;20.30;92.40
63435;DHT22;68814;50.872;5.306;2023-06-22T05:58:09;20.30;92.90
63435;DHT22;68814;50.872;5.306;2023-06-22T06:00:35;20.30;92.90
63435;DHT22;68814;50.872;5.306;2023-06-22T06:03:01;20.30;92.80
63435;DHT22;68814;50.872;5.306;2023-06-22T06:05:31;20.30;92.70
63435;DHT22;68814;50.872;5.306;2023-06-22T06:07:56;20.40;92.90
63435;DHT22;68814;50.872;5.306;2023-06-22T06:10:22;20.40;92.90
63435;DHT22;68814;50.872;5.306;2023-06-22T06:12:47;20.50;93.20
63435;DHT22;68814;50.872;5.306;2023-06-22T06:15:13;20.50;93.10
63435;DHT22;68814;50.872;5.306;2023-06-22T06:17:46;20.50;93.00
63435;DHT22;68814;50.872;5.306;2023-06-22T06:20:12;20.60;93.10
63435;DHT22;68814;50.872;5.306;2023-06-22T06:22:37;20.60;93.30
63435;DHT22;68814;50.872;5.306;2023-06-22T06:25:03;20.70;93.20
63435;DHT22;68814;50.872;5.306;2023-06-22T06:27:30;20.80;93.10
63435;DHT22;68814;50.872;5.306;2023-06-22T06:29:56;20.90;93.20
63435;DHT22;68814;50.872;5.306;2023-06-22T06:32:22;20.90;92.90
63435;DHT22;68814;50.872;5.306;2023-06-22T06:34:47;21.00;92.80
63435;DHT22;68814;50.872;5.306;2023-06-22T06:37:13;21.10;92.60
63435;DHT22;68814;50.872;5.306;2023-06-22T06:39:38;21.10;92.50
63435;DHT22;68814;50.872;5.306;2023-06-22T06:42:05;21.20;92.40
63435;DHT22;68814;50.872;5.306;2023-06-22T06:44:30;21.30;92.30
63435;DHT22;68814;50.872;5.306;2023-06-22T06:46:56;21.40;92.20
63435;DHT22;68814;50.872;5.306;2023-06-22T06:49:21;21.50;92.40
63435;DHT22;68814;50.872;5.306;2023-06-22T06:51:47;21.60;92.40
63435;DHT22;68814;50.872;5.306;2023-06-22T06:54:13;21.70;92.20
63435;DHT22;68814;50.872;5.306;2023-06-22T06:56:38;21.70;91.80
63435;DHT22;68814;50.872;5.306;2023-06-22T06:59:04;21.80;91.40
63435;DHT22;68814;50.872;5.306;2023-06-22T07:01:29;21.90;91.40
63435;DHT22;68814;50.872;5.306;2023-06-22T07:03:59;22.00;91.30
63435;DHT22;68814;50.872;5.306;2023-06-22T07:06:26;22.10;90.60
63435;DHT22;68814;50.872;5.306;2023-06-22T07:08:55;22.20;90.20
63435;DHT22;68814;50.872;5.306;2023-06-22T07:11:21;22.20;89.80
63435;DHT22;68814;50.872;5.306;2023-06-22T07:13:46;22.30;89.70
63435;DHT22;68814;50.872;5.306;2023-06-22T07:16:12;22.30;88.30
63435;DHT22;68814;50.872;5.306;2023-06-22T07:18:39;22.20;87.70
63435;DHT22;68814;50.872;5.306;2023-06-22T07:21:05;22.30;88.10
63435;DHT22;68814;50.872;5.306;2023-06-22T07:23:32;22.40;87.60
63435;DHT22;68814;50.872;5.306;2023-06-22T07:25:58;22.50;87.50
63435;DHT22;68814;50.872;5.306;2023-06-22T07:28:27;22.60;87.40
63435;DHT22;68814;50.872;5.306;2023-06-22T07:30:53;22.70;86.20
63435;DHT22;68814;50.872;5.306;2023-06-22T07:33:18;22.70;86.00
63435;DHT22;68814;50.872;5.306;2023-06-22T07:35:45;22.80;85.50
63435;DHT22;68814;50.872;5.306;2023-06-22T07:38:12;22.90;85.90
63435;DHT22;68814;50.872;5.306;2023-06-22T07:40:38;23.00;85.00
63435;DHT22;68814;50.872;5.306;2023-06-22T07:43:03;23.00;83.90
63435;DHT22;68814;50.872;5.306;2023-06-22T07:45:29;23.10;83.90
63435;DHT22;68814;50.872;5.306;2023-06-22T07:47:55;23.10;83.60
63435;DHT22;68814;50.872;5.306;2023-06-22T07:50:21;23.10;82.30
63435;DHT22;68814;50.872;5.306;2023-06-22T07:52:46;23.00;83.00
63435;DHT22;68814;50.872;5.306;2023-06-22T07:55:13;23.10;83.30
63435;DHT22;68814;50.872;5.306;2023-06-22T07:57:39;23.10;83.80
63435;DHT22;68814;50.872;5.306;2023-06-22T08:00:07;23.10;83.30
63435;DHT22;68814;50.872;5.306;2023-06-22T08:02:41;23.20;83.30
63435;DHT22;68814;50.872;5.306;2023-06-22T08:05:08;23.30;83.60
63435;DHT22;68814;50.872;5.306;2023-06-22T08:07:35;23.40;84.10
63435;DHT22;68814;50.872;5.306;2023-06-22T08:10:04;23.50;83.60
63435;DHT22;68814;50.872;5.306;2023-06-22T08:12:29;23.70;84.20
63435;DHT22;68814;50.872;5.306;2023-06-22T08:14:55;23.80;83.30
63435;DHT22;68814;50.872;5.306;2023-06-22T08:17:23;24.00;82.20
63435;DHT22;68814;50.872;5.306;2023-06-22T08:19:48;24.20;82.80
63435;DHT22;68814;50.872;5.306;2023-06-22T08:22:15;24.30;82.30
63435;DHT22;68814;50.872;5.306;2023-06-22T08:24:40;24.50;82.50
63435;DHT22;68814;50.872;5.306;2023-06-22T08:27:07;24.60;82.00
63435;DHT22;68814;50.872;5.306;2023-06-22T08:29:34;24.80;80.70
63435;DHT22;68814;50.872;5.306;2023-06-22T08:32:00;25.00;79.60
63435;DHT22;68814;50.872;5.306;2023-06-22T08:34:26;25.10;79.20
63435;DHT22;68814;50.872;5.306;2023-06-22T08:36:53;25.20;78.40
63435;DHT22;68814;50.872;5.306;2023-06-22T08:39:21;25.20;76.70
63435;DHT22;68814;50.872;5.306;2023-06-22T08:41:48;25.30;76.70
63435;DHT22;68814;50.872;5.306;2023-06-22T08:44:13;25.30;76.30
63435;DHT22;68814;50.872;5.306;2023-06-22T08:46:39;25.40;77.10
63435;DHT22;68814;50.872;5.306;2023-06-22T08:49:06;25.50;76.80
63435;DHT22;68814;50.872;5.306;2023-06-22T08:51:32;25.50;74.80
63435;DHT22;68814;50.872;5.306;2023-06-22T08:53:58;25.50;74.50
63435;DHT22;68814;50.872;5.306;2023-06-22T08:56:23;25.50;75.30
63435;DHT22;68814;50.872;5.306;2023-06-22T08:58:49;25.50;74.70
63435;DHT22;68814;50.872;5.306;2023-06-22T09:01:15;25.60;75.70
63435;DHT22;68814;50.872;5.306;2023-06-22T09:03:43;25.60;75.00
63435;DHT22;68814;50.872;5.306;2023-06-22T09:06:08;25.60;75.30
63435;DHT22;68814;50.872;5.306;2023-06-22T09:08:35;25.70;74.70
63435;DHT22;68814;50.872;5.306;2023-06-22T09:11:01;25.60;74.70
63435;DHT22;68814;50.872;5.306;2023-06-22T09:13:29;25.60;74.90
63435;DHT22;68814;50.872;5.306;2023-06-22T09:15:55;25.60;74.90
63435;DHT22;68814;50.872;5.306;2023-06-22T09:18:21;25.50;73.90
63435;DHT22;68814;50.872;5.306;2023-06-22T09:20:46;25.40;73.40
63435;DHT22;68814;50.872;5.306;2023-06-22T09:23:12;25.40;74.30
63435;DHT22;68814;50.872;5.306;2023-06-22T09:25:38;25.40;74.70
63435;DHT22;68814;50.872;5.306;2023-06-22T09:28:03;25.50;74.20
63435;DHT22;68814;50.872;5.306;2023-06-22T09:30:29;25.50;73.90
63435;DHT22;68814;50.872;5.306;2023-06-22T09:32:55;25.50;73.90
63435;DHT22;68814;50.872;5.306;2023-06-22T09:35:20;25.50;73.40
63435;DHT22;68814;50.872;5.306;2023-06-22T09:37:46;25.40;73.70
63435;DHT22;68814;50.872;5.306;2023-06-22T09:40:11;25.40;73.50
63435;DHT22;68814;50.872;5.306;2023-06-22T09:42:38;25.50;73.90
63435;DHT22;68814;50.872;5.306;2023-06-22T09:45:05;25.50;74.10
63435;DHT22;68814;50.872;5.306;2023-06-22T09:47:31;25.50;74.30
63435;DHT22;68814;50.872;5.306;2023-06-22T09:49:56;25.50;74.40
63435;DHT22;68814;50.872;5.306;2023-06-22T09:52:24;25.50;74.70
63435;DHT22;68814;50.872;5.306;2023-06-22T09:54:50;25.50;75.00
63435;DHT22;68814;50.872;5.306;2023-06-22T09:57:15;25.40;74.50
63435;DHT22;68814;50.872;5.306;2023-06-22T09:59:41;25.30;75.10
63435;DHT22;68814;50.872;5.306;2023-06-22T10:02:07;25.30;76.20
63435;DHT22;68814;50.872;5.306;2023-06-22T10:04:33;25.20;76.50
63435;DHT22;68814;50.872;5.306;2023-06-22T10:06:59;25.20;76.40
63435;DHT22;68814;50.872;5.306;2023-06-22T10:09:25;25.10;77.10
63435;DHT22;68814;50.872;5.306;2023-06-22T10:11:50;25.10;78.00
63435;DHT22;68814;50.872;5.306;2023-06-22T10:14:16;25.00;77.60
63435;DHT22;68814;50.872;5.306;2023-06-22T10:16:42;25.00;78.30
63435;DHT22;68814;50.872;5.306;2023-06-22T10:19:08;24.90;79.60
63435;DHT22;68814;50.872;5.306;2023-06-22T10:21:33;24.80;80.50
63435;DHT22;68814;50.872;5.306;2023-06-22T10:24:00;24.60;81.00
63435;DHT22;68814;50.872;5.306;2023-06-22T10:26:32;24.50;80.90
63435;DHT22;68814;50.872;5.306;2023-06-22T10:28:58;24.40;81.50
63435;DHT22;68814;50.872;5.306;2023-06-22T10:31:24;24.20;82.10
63435;DHT22;68814;50.872;5.306;2023-06-22T10:33:49;24.20;82.80
63435;DHT22;68814;50.872;5.306;2023-06-22T10:36:15;24.00;84.00
63435;DHT22;68814;50.872;5.306;2023-06-22T10:38:41;23.90;84.70
63435;DHT22;68814;50.872;5.306;2023-06-22T10:41:06;23.70;85.50
63435;DHT22;68814;50.872;5.306;2023-06-22T10:43:32;23.50;86.40
63435;DHT22;68814;50.872;5.306;2023-06-22T10:45:58;23.40;87.50
63435;DHT22;68814;50.872;5.306;2023-06-22T10:48:23;23.20;89.30
63435;DHT22;68814;50.872;5.306;2023-06-22T10:50:49;23.10;89.50
63435;DHT22;68814;50.872;5.306;2023-06-22T10:53:15;23.00;90.30
63435;DHT22;68814;50.872;5.306;2023-06-22T10:55:40;23.00;90.60
63435;DHT22;68814;50.872;5.306;2023-06-22T10:58:07;23.00;91.30
63435;DHT22;68814;50.872;5.306;2023-06-22T11:00:33;23.10;91.30
63435;DHT22;68814;50.872;5.306;2023-06-22T11:02:58;23.10;91.30
63435;DHT22;68814;50.872;5.306;2023-06-22T11:05:24;23.10;91.10
63435;DHT22;68814;50.872;5.306;2023-06-22T11:07:50;23.10;91.30
63435;DHT22;68814;50.872;5.306;2023-06-22T11:10:16;23.00;90.80
63435;DHT22;68814;50.872;5.306;2023-06-22T11:12:41;22.90;91.90
63435;DHT22;68814;50.872;5.306;2023-06-22T11:15:08;22.90;92.80
63435;DHT22;68814;50.872;5.306;2023-06-22T11:17:35;23.20;93.20
63435;DHT22;68814;50.872;5.306;2023-06-22T11:20:00;23.30;93.30
63435;DHT22;68814;50.872;5.306;2023-06-22T11:22:26;23.50;93.80
63435;DHT22;68814;50.872;5.306;2023-06-22T11:24:52;23.70;94.00
63435;DHT22;68814;50.872;5.306;2023-06-22T11:27:18;23.90;92.30
63435;DHT22;68814;50.872;5.306;2023-06-22T11:29:43;24.10;91.70
63435;DHT22;68814;50.872;5.306;2023-06-22T11:32:09;24.20;90.90
63435;DHT22;68814;50.872;5.306;2023-06-22T11:37:00;24.50;90.30
63435;DHT22;68814;50.872;5.306;2023-06-22T11:39:26;24.50;89.00
63435;DHT22;68814;50.872;5.306;2023-06-22T11:41:52;24.40;88.20
63435;DHT22;68814;50.872;5.306;2023-06-22T11:44:18;24.40;88.50
63435;DHT22;68814;50.872;5.306;2023-06-22T11:46:43;24.50;86.80
63435;DHT22;68814;50.872;5.306;2023-06-22T11:49:09;24.30;85.80
63435;DHT22;68814;50.872;5.306;2023-06-22T11:51:34;24.10;86.00
63435;DHT22;68814;50.872;5.306;2023-06-22T11:54:00;23.90;87.40
63435;DHT22;68814;50.872;5.306;2023-06-22T11:56:26;23.80;87.90
63435;DHT22;68814;50.872;5.306;2023-06-22T11:58:53;23.70;88.20
63435;DHT22;68814;50.872;5.306;2023-06-22T12:01:19;23.50;89.40
63435;DHT22;68814;50.872;5.306;2023-06-22T12:03:45;23.40;88.80
63435;DHT22;68814;50.872;5.306;2023-06-22T12:06:11;23.30;90.20
63435;DHT22;68814;50.872;5.306;2023-06-22T12:08:37;23.10;90.20
63435;DHT22;68814;50.872;5.306;2023-06-22T12:11:03;23.00;90.50
63435;DHT22;68814;50.872;5.306;2023-06-22T12:13:28;23.00;90.50
63435;DHT22;68814;50.872;5.306;2023-06-22T12:15:54;22.90;90.70
63435;DHT22;68814;50.872;5.306;2023-06-22T12:18:19;22.80;90.90
63435;DHT22;68814;50.872;5.306;2023-06-22T12:20:46;22.70;91.10
63435;DHT22;68814;50.872;5.306;2023-06-22T12:23:12;22.60;91.60
63435;DHT22;68814;50.872;5.306;2023-06-22T12:25:38;22.40;91.80
63435;DHT22;68814;50.872;5.306;2023-06-22T12:28:04;22.20;91.90
63435;DHT22;68814;50.872;5.306;2023-06-22T12:30:30;22.10;92.60
63435;DHT22;68814;50.872;5.306;2023-06-22T12:32:56;22.10;92.70
63435;DHT22;68814;50.872;5.306;2023-06-22T12:35:21;22.00;93.00
63435;DHT22;68814;50.872;5.306;2023-06-22T12:37:47;21.90;93.10
63435;DHT22;68814;50.872;5.306;2023-06-22T12:40:13;21.80;93.20
63435;DHT22;68814;50.872;5.306;2023-06-22T12:42:39;21.70;93.40
63435;DHT22;68814;50.872;5.306;2023-06-22T12:45:05;21.70;93.70
63435;DHT22;68814;50.872;5.306;2023-06-22T12:47:31;21.60;93.70
63435;DHT22;68814;50.872;5.306;2023-06-22T12:49:56;21.50;93.80
63435;DHT22;68814;50.872;5.306;2023-06-22T12:52:22;21.40;93.90
63435;DHT22;68814;50.872;5.306;2023-06-22T12:54:48;21.30;94.30
63435;DHT22;68814;50.872;5.306;2023-06-22T12:57:14;21.30;94.40
63435;DHT22;68814;50.872;5.306;2023-06-22T12:59:39;21.20;94.80
63435;DHT22;68814;50.872;5.306;2023-06-22T13:02:05;21.10;94.90
63435;DHT22;68814;50.872;5.306;2023-06-22T13:04:31;21.00;95.20
63435;DHT22;68814;50.872;5.306;2023-06-22T13:06:56;20.90;95.20
63435;DHT22;68814;50.872;5.306;2023-06-22T13:09:22;20.90;95.40
63435;DHT22;68814;50.872;5.306;2023-06-22T13:11:48;20.80;95.60
63435;DHT22;68814;50.872;5.306;2023-06-22T13:14:13;20.70;95.80
63435;DHT22;68814;50.872;5.306;2023-06-22T13:16:41;20.70;95.80
63435;DHT22;68814;50.872;5.306;2023-06-22T13:19:07;20.70;95.90
63435;DHT22;68814;50.872;5.306;2023-06-22T13:21:33;20.60;96.00
63435;DHT22;68814;50.872;5.306;2023-06-22T13:23:59;20.50;96.10
63435;DHT22;68814;50.872;5.306;2023-06-22T13:26:25;20.50;96.20
63435;DHT22;68814;50.872;5.306;2023-06-22T13:28:51;20.50;96.20
63435;DHT22;68814;50.872;5.306;2023-06-22T13:31:16;20.30;96.40
63435;DHT22;68814;50.872;5.306;2023-06-22T13:33:42;20.30;96.60
63435;DHT22;68814;50.872;5.306;2023-06-22T13:36:09;20.30;96.70
63435;DHT22;68814;50.872;5.306;2023-06-22T13:38:35;20.20;96.80
63435;DHT22;68814;50.872;5.306;2023-06-22T13:41:04;20.10;96.80
63435;DHT22;68814;50.872;5.306;2023-06-22T13:43:29;20.10;96.90
63435;DHT22;68814;50.872;5.306;2023-06-22T13:45:55;20.10;97.00
63435;DHT22;68814;50.872;5.306;2023-06-22T13:48:20;20.00;97.00
63435;DHT22;68814;50.872;5.306;2023-06-22T13:50:48;19.90;97.10
63435;DHT22;68814;50.872;5.306;2023-06-22T13:53:14;19.90;97.30
63435;DHT22;68814;50.872;5.306;2023-06-22T13:55:40;19.80;97.30
63435;DHT22;68814;50.872;5.306;2023-06-22T13:58:06;19.80;97.50
63435;DHT22;68814;50.872;5.306;2023-06-22T14:00:31;19.70;97.70
63435;DHT22;68814;50.872;5.306;2023-06-22T14:02:57;19.70;97.80
63435;DHT22;68814;50.872;5.306;2023-06-22T14:05:23;19.60;97.80
63435;DHT22;68814;50.872;5.306;2023-06-22T14:07:49;19.60;98.00
63435;DHT22;68814;50.872;5.306;2023-06-22T14:10:14;19.60;98.00
63435;DHT22;68814;50.872;5.306;2023-06-22T14:12:40;19.50;98.10
63435;DHT22;68814;50.872;5.306;2023-06-22T14:15:06;19.50;98.20
63435;DHT22;68814;50.872;5.306;2023-06-22T14:17:32;19.50;98.20
63435;DHT22;68814;50.872;5.306;2023-06-22T14:19:57;19.40;98.20
63435;DHT22;68814;50.872;5.306;2023-06-22T14:22:23;19.40;98.40
63435;DHT22;68814;50.872;5.306;2023-06-22T14:24:49;19.30;98.40
63435;DHT22;68814;50.872;5.306;2023-06-22T14:27:15;19.30;98.60
63435;DHT22;68814;50.872;5.306;2023-06-22T14:29:43;19.30;98.60
63435;DHT22;68814;50.872;5.306;2023-06-22T14:32:09;19.30;98.60
63435;DHT22;68814;50.872;5.306;2023-06-22T14:34:35;19.20;98.50
63435;DHT22;68814;50.872;5.306;2023-06-22T16:44:10;18.60;99.40
63435;DHT22;68814;50.872;5.306;2023-06-22T16:46:43;18.50;99.70
63435;DHT22;68814;50.872;5.306;2023-06-22T16:49:23;18.60;99.40
63435;DHT22;68814;50.872;5.306;2023-06-22T16:51:53;18.60;99.40
63435;DHT22;68814;50.872;5.306;2023-06-22T16:54:39;18.60;99.40
63435;DHT22;68814;50.872;5.306;2023-06-22T16:57:07;18.60;99.40
63435;DHT22;68814;50.872;5.306;2023-06-22T16:59:35;18.60;99.30
63435;DHT22;68814;50.872;5.306;2023-06-22T17:02:23;18.60;99.40
63435;DHT22;68814;50.872;5.306;2023-06-22T17:05:01;18.60;99.50
63435;DHT22;68814;50.872;5.306;2023-06-22T17:07:36;18.60;99.50
63435;DHT22;68814;50.872;5.306;2023-06-22T17:10:09;18.60;99.50
63435;DHT22;68814;50.872;5.306;2023-06-22T17:12:39;18.50;99.50
63435;DHT22;68814;50.872;5.306;2023-06-22T17:15:09;18.60;99.60
63435;DHT22;68814;50.872;5.306;2023-06-22T17:17:45;18.60;99.60
63435;DHT22;68814;50.872;5.306;2023-06-22T17:20:18;18.60;99.60
63435;DHT22;68814;50.872;5.306;2023-06-22T17:22:45;18.60;99.70
63435;DHT22;68814;50.872;5.306;2023-06-22T17:25:12;18.60;99.70
63435;DHT22;68814;50.872;5.306;2023-06-22T17:27:39;18.60;99.90
63435;DHT22;68814;50.872;5.306;2023-06-22T17:30:10;18.60;99.90
63435;DHT22;68814;50.872;5.306;2023-06-22T17:32:38;18.60;99.90
63435;DHT22;68814;50.872;5.306;2023-06-22T17:35:05;18.60;99.90
63435;DHT22;68814;50.872;5.306;2023-06-22T17:37:48;18.60;99.90
63435;DHT22;68814;50.872;5.306;2023-06-22T17:40:18;18.60;99.90
63435;DHT22;68814;50.872;5.306;2023-06-22T17:42:45;18.60;99.90